Main page
METAR-TAF:

METAR-TAF

Airports :

Sarajevo, Bosnia and Herzegovina

Sarajevo International Airport

latitude: 43-49N, longitude: 018-20E, elevation: 511 m

Current weather observation

The report was made 55 minutes ago, at 22:00 UTC
Wind 10 kt from the Northwest
Temperature 16°C
Humidity 68%
Pressure 1015 hPa
Visibility 10 km or more
no clouds below 1500 m and no cumulonimbus

METAR: LQSA 262200Z 31010KT CAVOK 16/10 Q1015

Time: 00:55 (22:55 UTC)

Forecast

The report was made 5 hours and 55 minutes ago, at 17:00 UTC
Forecast valid from 26 at 18 UTC to 27 at 18 UTC
Wind 5 kt from variable directions
Visibility 10 km or more
no clouds below 1500 m and no cumulonimbus
Probability 30% :
Temporary
from 26 at 18 UTC to 26 at 22 UTC
Wind 15 kt from the North
Broken clouds at a height of 1400 ft
rain

TAF: LQSA 261700Z 2618/2718 VRB05KT CAVOK TX26/2714Z TN07/2703Z PROB30 TEMPO 2618/2622 01015KT RA BKN014

Weather observations and forecasts of more than 4000 airports (METAR and TAF reports).

The available stations are represented by yellow and red dots on the map.

Hover mouse over dot to see the name of the station.

Then click to see weather observations and forecasts.

To change the map : click on the green buttons with a black cross to zoom in, on the green button with a dash to zoom out, or on the green arrows for adjacent maps.


METAR-TAF: